Time;durP1;ratioP1;P1;durP2;ratioP2;P2;SDS_P1;SDS_P2;PMS_P1;PMS_P2;Temp;Humidity;BMP_temperature;BMP_pressure;BME280_temperature;BME280_humidity;BME280_pressure;Samples;Min_cycle;Max_cycle;Signal;HPM_P1;HPM_P2
2021/07/28 00:01:00;;;;;;;10.70;8.50;;;;;;;19.16;78.24;100193.55;93290;1209;86957;-62
2021/07/28 00:03:08;;;;;;;10.20;9.10;;;;;;;19.07;78.24;100184.08;93264;1208;73473;-61
2021/07/28 00:05:17;;;;;;;10.10;8.40;;;;;;;19.07;78.42;100186.81;93221;1209;81679;-59
2021/07/28 00:07:25;;;;;;;10.50;8.60;;;;;;;19.05;78.25;100180.77;93252;1209;67431;-60
2021/07/28 00:09:33;;;;;;;10.00;8.60;;;;;;;19.05;78.39;100172.55;93258;1209;69849;-62
2021/07/28 00:11:41;;;;;;;12.00;8.40;;;;;;;19.00;78.63;100177.95;93298;1209;86040;-66
2021/07/28 00:13:49;;;;;;;10.50;8.30;;;;;;;18.91;78.53;100179.45;93279;1208;74347;-58
2021/07/28 00:15:57;;;;;;;10.50;9.00;;;;;;;18.92;78.62;100180.28;93271;1209;81135;-59
2021/07/28 00:18:12;;;;;;;10.20;8.70;;;;;;;18.92;78.46;100180.28;93278;1209;68310;-61
2021/07/28 00:20:27;;;;;;;11.00;8.30;;;;;;;18.88;78.58;100174.46;93305;1209;67608;-60
2021/07/28 00:25:07;;;;;;;13.40;8.80;;;;;;;18.89;78.67;100176.13;93288;1209;75751;-62
2021/07/28 00:27:15;;;;;;;9.50;7.80;;;;;;;18.89;78.69;100180.77;93267;1209;80161;-62
2021/07/28 00:29:24;;;;;;;12.00;8.30;;;;;;;18.85;78.77;100178.53;93232;1208;66533;-60
2021/07/28 00:31:32;;;;;;;15.10;8.70;;;;;;;18.82;78.82;100176.28;93282;1209;68885;-60
2021/07/28 00:33:42;;;;;;;10.10;7.90;;;;;;;18.76;78.86;100171.80;93232;1208;85264;-59
2021/07/28 00:35:54;;;;;;;10.80;8.50;;;;;;;18.74;78.77;100178.60;93246;1209;74159;-60
2021/07/28 00:38:09;;;;;;;10.80;7.80;;;;;;;18.70;78.68;100174.72;93320;1198;80245;-63
2021/07/28 00:40:18;;;;;;;8.40;7.10;;;;;;;18.66;78.95;100173.54;93288;1213;68184;-63
2021/07/28 00:42:26;;;;;;;9.40;8.50;;;;;;;18.61;78.80;100177.02;93337;1209;68662;-61
2021/07/28 00:44:35;;;;;;;11.30;9.10;;;;;;;18.62;79.10;100166.92;93222;1208;85496;-65
2021/07/28 00:46:43;;;;;;;9.70;8.30;;;;;;;18.60;79.06;100169.88;93272;1209;74185;-63
2021/07/28 00:48:51;;;;;;;9.20;8.00;;;;;;;18.62;78.80;100167.72;93287;1209;80811;-63
2021/07/28 00:50:59;;;;;;;10.40;7.70;;;;;;;18.64;78.85;100157.38;93286;1207;68364;-64
2021/07/28 00:53:16;;;;;;;10.40;7.80;;;;;;;18.67;78.95;100164.27;93265;1209;67960;-65
2021/07/28 00:55:24;;;;;;;9.00;8.10;;;;;;;18.59;79.07;100167.41;93254;1214;87072;-63
2021/07/28 00:57:32;;;;;;;10.80;7.60;;;;;;;18.57;78.96;100173.11;93319;1209;75296;-63
2021/07/28 00:59:41;;;;;;;12.80;8.50;;;;;;;18.55;79.04;100168.96;93280;1209;81404;-63
2021/07/28 01:01:49;;;;;;;9.80;8.00;;;;;;;18.51;79.17;100176.86;93285;1207;68098;-63
2021/07/28 01:03:57;;;;;;;13.60;8.40;;;;;;;18.47;78.98;100175.64;93263;1209;68602;-63
2021/07/28 01:06:05;;;;;;;9.60;7.10;;;;;;;18.41;79.04;100175.78;93293;1209;85812;-63
2021/07/28 01:08:13;;;;;;;9.10;7.40;;;;;;;18.35;79.17;100174.05;93283;1209;75024;-59
2021/07/28 01:10:21;;;;;;;10.80;7.60;;;;;;;18.26;79.12;100171.72;93262;1209;81673;-58
2021/07/28 01:12:34;;;;;;;9.20;7.50;;;;;;;18.17;79.62;100178.64;93264;1209;65745;-63
2021/07/28 01:14:44;;;;;;;9.20;7.40;;;;;;;18.14;79.48;100179.13;93170;1208;68562;-64
2021/07/28 01:16:53;;;;;;;10.50;7.80;;;;;;;18.09;79.70;100176.30;93285;1214;87699;-64
2021/07/28 01:19:01;;;;;;;10.20;7.50;;;;;;;18.07;79.79;100177.63;93280;1209;75118;-62
2021/07/28 01:21:12;;;;;;;10.10;6.80;;;;;;;18.05;79.71;100175.11;93270;1211;81046;-63
2021/07/28 01:23:26;;;;;;;10.20;8.00;;;;;;;18.05;80.12;100174.27;93292;1204;65845;-58
2021/07/28 01:25:35;;;;;;;12.90;7.70;;;;;;;18.06;79.85;100173.22;93326;1199;68085;-60
2021/07/28 01:27:43;;;;;;;11.00;8.20;;;;;;;18.03;79.83;100179.16;93233;1208;86686;-63
2021/07/28 01:29:51;;;;;;;9.00;6.70;;;;;;;17.99;79.98;100181.55;93285;1209;75167;-63
2021/07/28 01:31:59;;;;;;;10.60;7.70;;;;;;;17.97;80.18;100183.70;93289;1203;80182;-62
2021/07/28 01:34:08;;;;;;;7.40;6.60;;;;;;;17.96;80.08;100192.16;93253;1204;65413;-63
2021/07/28 01:36:19;;;;;;;11.00;7.10;;;;;;;17.95;80.30;100185.86;93311;1208;68846;-63
2021/07/28 01:38:28;;;;;;;9.30;6.70;;;;;;;17.95;80.19;100183.13;93158;1209;85944;-63
2021/07/28 01:40:40;;;;;;;10.00;7.00;;;;;;;17.94;80.51;100189.65;93051;1209;74575;-63
2021/07/28 01:42:49;;;;;;;9.20;7.80;;;;;;;17.94;80.44;100184.18;93123;1208;80858;-59
2021/07/28 01:44:59;;;;;;;9.20;7.20;;;;;;;17.94;80.38;100186.08;93152;1208;65792;-58
2021/07/28 01:47:08;;;;;;;8.00;6.50;;;;;;;17.90;80.45;100185.75;93130;1208;70027;-59
2021/07/28 01:49:16;;;;;;;8.10;6.90;;;;;;;17.89;80.51;100186.81;93122;1208;86926;-59
2021/07/28 01:51:24;;;;;;;9.20;7.20;;;;;;;17.91;80.55;100201.06;93165;1213;74699;-59
2021/07/28 01:53:32;;;;;;;10.10;7.30;;;;;;;17.96;80.60;100186.69;93021;1208;81120;-60
2021/07/28 01:55:40;;;;;;;9.90;7.60;;;;;;;17.95;80.49;100191.32;93071;1208;65844;-60
2021/07/28 01:57:48;;;;;;;13.20;7.40;;;;;;;17.94;80.62;100192.38;93147;1215;69072;-62
2021/07/28 02:00:00;;;;;;;8.60;7.10;;;;;;;17.95;80.60;100191.32;93109;1208;87130;-62
2021/07/28 02:02:08;;;;;;;11.00;7.60;;;;;;;17.94;80.52;100192.38;93064;1213;74039;-62
2021/07/28 02:04:16;;;;;;;10.80;7.10;;;;;;;17.91;80.53;100194.80;93123;1208;81971;-63
2021/07/28 02:06:23;;;;;;;9.70;6.90;;;;;;;17.91;80.50;100194.80;93124;1209;66912;-63
2021/07/28 02:08:34;;;;;;;8.40;7.10;;;;;;;17.88;80.68;100192.54;93096;1213;69022;-60
2021/07/28 02:10:46;;;;;;;11.10;6.80;;;;;;;17.87;80.70;100188.97;93119;1209;85742;-59
2021/07/28 02:12:57;;;;;;;12.00;7.00;;;;;;;17.85;80.65;100188.39;93147;1208;75352;-64
2021/07/28 02:15:07;;;;;;;13.60;7.30;;;;;;;17.83;80.71;100192.41;93034;1214;82038;-65
2021/07/28 02:17:15;;;;;;;8.00;6.90;;;;;;;17.83;80.72;100189.67;93061;1208;65389;-64
2021/07/28 02:19:22;;;;;;;12.90;7.30;;;;;;;17.82;80.70;100186.14;93070;1209;70253;-59
2021/07/28 02:21:30;;;;;;;9.80;7.40;;;;;;;17.83;80.78;100182.31;93084;1208;86276;-59
2021/07/28 02:23:41;;;;;;;10.80;6.80;;;;;;;17.82;80.64;100177.94;93010;1209;76469;-60
2021/07/28 02:25:48;;;;;;;9.10;6.60;;;;;;;17.78;80.70;100176.75;93027;1208;81743;-60
2021/07/28 02:27:57;;;;;;;11.00;7.40;;;;;;;17.77;80.70;100177.00;93148;1208;68961;-59
2021/07/28 02:30:06;;;;;;;9.00;6.90;;;;;;;17.75;80.86;100179.13;93093;1215;68220;-58
2021/07/28 02:32:14;;;;;;;8.40;7.00;;;;;;;17.74;80.86;100172.02;93078;1208;86758;-60
2021/07/28 02:34:22;;;;;;;15.10;7.50;;;;;;;17.71;80.87;100167.03;93027;1208;73699;-60
2021/07/28 02:36:30;;;;;;;8.50;6.90;;;;;;;17.68;80.98;100168.34;93133;1209;80334;-60
2021/07/28 02:38:40;;;;;;;9.10;6.80;;;;;;;17.63;80.89;100168.24;93205;1213;69280;-58
2021/07/28 02:40:48;;;;;;;10.30;7.50;;;;;;;17.59;81.12;100169.78;93142;1208;69826;-60
2021/07/28 02:42:56;;;;;;;12.20;7.50;;;;;;;17.59;81.21;100169.78;93228;1208;87128;-66
2021/07/28 02:45:05;;;;;;;7.40;6.70;;;;;;;17.57;81.36;100171.93;93228;1208;73735;-60
2021/07/28 02:47:13;;;;;;;10.50;6.90;;;;;;;17.57;81.38;100178.23;93239;1204;80197;-61
2021/07/28 02:49:21;;;;;;;9.70;7.00;;;;;;;17.56;81.34;100173.83;93185;1203;67328;-61
2021/07/28 02:51:29;;;;;;;11.90;7.20;;;;;;;17.56;81.33;100181.19;93154;1208;68120;-60
2021/07/28 02:53:36;;;;;;;9.10;7.20;;;;;;;17.55;81.23;100171.34;93186;1209;87115;-61
2021/07/28 02:55:45;;;;;;;9.80;7.70;;;;;;;17.55;81.26;100179.55;93214;1209;76498;-60
2021/07/28 02:57:55;;;;;;;9.50;7.20;;;;;;;17.54;81.36;100181.44;93220;1209;81849;-60
2021/07/28 03:00:04;;;;;;;9.00;7.20;;;;;;;17.54;81.51;100175.14;93157;1209;68952;-59
2021/07/28 03:02:11;;;;;;;8.70;7.20;;;;;;;17.53;81.49;100173.44;93082;1216;68838;-59
2021/07/28 03:04:20;;;;;;;12.00;8.50;;;;;;;17.55;81.41;100176.81;93055;1213;86253;-62
2021/07/28 03:06:28;;;;;;;8.30;6.80;;;;;;;17.54;81.34;100172.41;93219;1209;75496;-61
2021/07/28 03:08:36;;;;;;;8.20;6.80;;;;;;;17.54;81.58;100180.60;93014;1208;81750;-60
2021/07/28 03:10:46;;;;;;;9.00;7.10;;;;;;;17.56;81.41;100176.56;93228;1207;67391;-60
2021/07/28 03:12:54;;;;;;;8.80;6.50;;;;;;;17.56;81.32;100173.83;93214;1215;69704;-62
2021/07/28 03:15:02;;;;;;;8.20;6.50;;;;;;;17.56;81.44;100181.19;93244;1208;86726;-63
2021/07/28 03:17:13;;;;;;;13.90;7.70;;;;;;;17.55;81.55;100176.81;93181;1209;75756;-66
2021/07/28 03:19:20;;;;;;;10.20;7.20;;;;;;;17.58;81.71;100179.03;93218;1209;79986;-62
2021/07/28 03:21:28;;;;;;;7.90;6.70;;;;;;;17.60;81.64;100177.75;93174;1208;68723;-62
2021/07/28 03:23:37;;;;;;;8.30;7.20;;;;;;;17.63;81.60;100179.98;93222;1203;68071;-61
2021/07/28 03:25:44;;;;;;;11.20;6.90;;;;;;;17.67;81.65;100183.91;93048;1208;86673;-61
2021/07/28 03:27:55;;;;;;;9.30;6.80;;;;;;;17.69;81.64;100187.22;93240;1209;75624;-61
2021/07/28 03:30:03;;;;;;;8.00;6.90;;;;;;;17.70;81.59;100179.86;93202;1208;81297;-61
2021/07/28 03:32:12;;;;;;;8.80;6.40;;;;;;;17.75;81.55;100181.86;93291;1209;67055;-60
2021/07/28 03:34:23;;;;;;;10.00;7.10;;;;;;;17.78;81.66;100184.94;93049;1213;68103;-64
2021/07/28 03:36:30;;;;;;;10.20;6.80;;;;;;;17.84;81.84;100183.98;93235;1209;86568;-61
2021/07/28 03:38:38;;;;;;;11.20;6.90;;;;;;;17.91;81.89;100189.33;93119;1208;74560;-60
2021/07/28 03:40:47;;;;;;;8.10;6.20;;;;;;;18.00;81.85;100188.69;93046;1213;80554;-61
2021/07/28 03:42:54;;;;;;;9.10;7.20;;;;;;;18.08;81.88;100188.30;93079;1209;66914;-62
2021/07/28 03:45:03;;;;;;;9.10;7.00;;;;;;;18.17;81.85;100189.58;93117;1208;68454;-60
2021/07/28 03:47:11;;;;;;;8.10;7.20;;;;;;;18.27;81.70;100189.77;93130;1208;85800;-62
2021/07/28 03:49:19;;;;;;;8.70;6.70;;;;;;;18.35;81.74;100191.27;93134;1208;74132;-61
2021/07/28 03:51:30;;;;;;;8.60;6.50;;;;;;;18.58;82.00;100180.25;93055;1216;81636;-62
2021/07/28 03:53:39;;;;;;;8.30;6.50;;;;;;;19.27;82.07;100178.92;93052;1208;68431;-61
2021/07/28 03:55:47;;;;;;;9.00;6.90;;;;;;;20.24;81.50;100179.16;93120;1208;67716;-61
2021/07/28 03:57:55;;;;;;;9.30;6.80;;;;;;;21.08;80.52;100179.40;93125;1208;87698;-62
2021/07/28 04:00:03;;;;;;;8.90;6.70;;;;;;;21.77;79.69;100177.35;93045;1208;74437;-62
2021/07/28 04:02:13;;;;;;;9.60;6.40;;;;;;;22.51;78.89;100177.89;93050;1209;81531;-61
2021/07/28 04:04:24;;;;;;;9.20;6.60;;;;;;;23.26;77.73;100176.28;93046;1208;65981;-61
2021/07/28 04:06:31;;;;;;;8.40;6.70;;;;;;;23.83;76.32;100173.13;93137;1208;68078;-62
2021/07/28 04:08:39;;;;;;;7.50;6.30;;;;;;;24.44;75.33;100174.52;93148;1209;85690;-61
2021/07/28 04:10:48;;;;;;;6.90;6.10;;;;;;;24.83;73.95;100176.48;93133;1208;75523;-60
2021/07/28 04:12:56;;;;;;;6.80;6.00;;;;;;;25.17;72.77;100172.57;93145;1208;80625;-60
2021/07/28 04:15:04;;;;;;;6.30;5.30;;;;;;;25.50;71.81;100165.35;93135;1208;65901;-62
2021/07/28 04:17:15;;;;;;;8.90;5.90;;;;;;;25.85;70.35;100172.41;93170;1208;69739;-61
2021/07/28 04:19:23;;;;;;;6.90;5.50;;;;;;;26.24;69.29;100177.75;93076;1215;85221;-61
2021/07/28 04:21:31;;;;;;;8.70;6.10;;;;;;;26.36;68.39;100172.61;93028;1208;74748;-61
2021/07/28 04:23:39;;;;;;;6.20;5.50;;;;;;;26.36;68.08;100181.75;93144;1209;80002;-60
2021/07/28 04:25:47;;;;;;;8.60;5.90;;;;;;;26.03;66.52;100182.72;93130;1208;66583;-60
2021/07/28 04:27:55;;;;;;;7.70;5.90;;;;;;;25.45;66.44;100184.75;93038;1215;69635;-62
2021/07/28 04:30:04;;;;;;;8.70;6.10;;;;;;;24.84;67.60;100189.16;93138;1208;86513;-62
2021/07/28 04:32:13;;;;;;;7.80;5.70;;;;;;;24.44;67.77;100182.80;93073;1208;74820;-60
2021/07/28 04:34:21;;;;;;;7.10;6.00;;;;;;;23.98;68.17;100182.16;93108;1208;82683;-61
2021/07/28 04:36:29;;;;;;;7.60;6.10;;;;;;;23.58;68.64;100179.55;93108;1209;66095;-62
2021/07/28 04:38:36;;;;;;;6.50;5.80;;;;;;;23.41;69.20;100181.79;93187;1208;69093;-61
2021/07/28 04:40:44;;;;;;;8.30;5.80;;;;;;;23.29;69.21;100189.52;93230;1209;85400;-62
2021/07/28 04:42:52;;;;;;;7.20;5.90;;;;;;;23.48;69.70;100187.86;93226;1215;74184;-63
2021/07/28 04:45:00;;;;;;;9.30;6.80;;;;;;;23.77;69.00;100186.11;93239;1215;81197;-64
2021/07/28 04:47:09;;;;;;;8.10;6.50;;;;;;;23.67;68.80;100185.33;93194;1215;65539;-60
2021/07/28 04:49:17;;;;;;;8.50;6.40;;;;;;;23.57;69.08;100183.41;93029;1208;69151;-62
2021/07/28 04:51:26;;;;;;;9.20;6.10;;;;;;;23.45;69.53;100177.39;93203;1215;87184;-61
2021/07/28 04:53:34;;;;;;;7.80;5.90;;;;;;;24.20;69.17;100179.05;93225;1209;76516;-60
2021/07/28 04:55:42;;;;;;;6.80;6.10;;;;;;;25.42;69.13;100179.80;93218;1208;81067;-61
2021/07/28 04:57:49;;;;;;;7.10;5.70;;;;;;;26.66;67.46;100165.78;93046;1208;67237;-62
2021/07/28 04:59:57;;;;;;;7.80;5.90;;;;;;;27.88;66.08;100170.84;93225;1207;68792;-61
2021/07/28 05:02:06;;;;;;;8.00;5.30;;;;;;;28.76;64.50;100175.84;93129;1208;87034;-60
2021/07/28 05:04:14;;;;;;;7.60;5.60;;;;;;;29.47;62.85;100174.89;93235;1209;75448;-61
2021/07/28 05:06:21;;;;;;;7.00;4.80;;;;;;;30.14;61.07;100171.86;93232;1209;81558;-63
2021/07/28 05:08:29;;;;;;;6.30;5.70;;;;;;;30.42;59.79;100175.23;93014;1213;65769;-61
2021/07/28 05:10:37;;;;;;;7.00;5.40;;;;;;;29.93;59.50;100170.84;93217;1207;69096;-62
2021/07/28 05:12:45;;;;;;;6.10;5.50;;;;;;;30.22;58.64;100165.48;93208;1209;85309;-62
2021/07/28 05:14:52;;;;;;;7.70;5.40;;;;;;;30.70;58.29;100169.02;93220;1209;75564;-61
2021/07/28 05:17:03;;;;;;;5.20;4.70;;;;;;;31.09;57.30;100159.66;93091;1208;81798;-62
2021/07/28 05:19:11;;;;;;;8.50;5.40;;;;;;;31.95;55.70;100162.97;93174;1209;66427;-62
2021/07/28 05:21:19;;;;;;;6.50;5.10;;;;;;;32.74;54.66;100161.34;93251;1209;68767;-62
2021/07/28 05:23:27;;;;;;;6.50;5.70;;;;;;;33.13;53.79;100152.41;93219;1203;86263;-67
2021/07/28 05:25:34;;;;;;;5.90;5.30;;;;;;;33.45;52.88;100153.55;93192;1209;74498;-64
2021/07/28 05:27:43;;;;;;;6.50;5.50;;;;;;;34.01;51.97;100152.66;93218;1209;81284;-62
2021/07/28 05:29:51;;;;;;;5.00;4.60;;;;;;;34.40;51.30;100145.52;93196;1215;66870;-62
2021/07/28 05:31:58;;;;;;;6.50;5.10;;;;;;;34.50;49.70;100142.23;93223;1214;69495;-66
2021/07/28 05:34:06;;;;;;;6.00;4.70;;;;;;;34.76;47.78;100141.80;93182;1207;86251;-67
2021/07/28 05:36:14;;;;;;;7.20;4.90;;;;;;;35.08;47.21;100143.55;93288;1208;74621;-67
2021/07/28 05:38:22;;;;;;;7.10;5.00;;;;;;;35.32;46.40;100149.05;93176;1214;81820;-61
2021/07/28 05:40:30;;;;;;;6.50;5.40;;;;;;;35.35;45.83;100153.95;93232;1207;65614;-61
2021/07/28 05:42:38;;;;;;;7.40;5.00;;;;;;;35.24;45.68;100144.42;93131;1208;67998;-62
2021/07/28 05:44:46;;;;;;;5.80;4.80;;;;;;;35.59;45.37;100152.17;93188;1209;86330;-62
2021/07/28 05:46:53;;;;;;;7.10;4.80;;;;;;;35.80;43.84;100144.27;93268;1203;75203;-62
2021/07/28 05:49:01;;;;;;;5.90;4.90;;;;;;;35.28;44.42;100144.49;93176;1213;80298;-61
2021/07/28 05:51:09;;;;;;;6.60;5.10;;;;;;;34.11;44.68;100157.84;93138;1209;66807;-62
2021/07/28 05:53:17;;;;;;;5.90;5.10;;;;;;;33.33;45.45;100159.94;93066;1208;69769;-62
2021/07/28 05:55:25;;;;;;;5.50;5.00;;;;;;;32.89;46.28;100161.52;93216;1209;86828;-60
2021/07/28 05:57:32;;;;;;;6.90;5.00;;;;;;;32.11;47.66;100147.28;93217;1209;74362;-64
2021/07/28 05:59:40;;;;;;;7.00;5.30;;;;;;;31.87;48.41;100152.66;93222;1207;80073;-66
2021/07/28 06:01:48;;;;;;;6.10;4.90;;;;;;;31.69;48.77;100151.12;93226;1209;65393;-61
2021/07/28 06:03:59;;;;;;;6.80;4.70;;;;;;;31.50;49.45;100148.73;93187;1208;70346;-63
2021/07/28 06:06:06;;;;;;;8.70;4.60;;;;;;;32.06;49.39;100155.88;93072;1208;87225;-61
2021/07/28 06:08:14;;;;;;;5.60;4.80;;;;;;;31.77;49.23;100153.05;93189;1208;74284;-62
2021/07/28 06:10:22;;;;;;;9.50;5.30;;;;;;;31.98;48.96;100153.91;93255;1203;81329;-62
2021/07/28 06:12:30;;;;;;;8.70;4.70;;;;;;;32.32;48.55;100163.28;93229;1208;65930;-62
2021/07/28 06:14:38;;;;;;;5.80;4.80;;;;;;;32.82;47.12;100161.27;93031;1208;69482;-63
2021/07/28 06:16:46;;;;;;;8.30;4.50;;;;;;;32.94;46.11;100161.30;93253;1208;85184;-62
2021/07/28 06:18:54;;;;;;;58.60;52.40;;;;;;;33.04;46.64;100157.27;93205;1208;75106;-61
2021/07/28 06:21:02;;;;;;;30.50;27.60;;;;;;;33.20;46.51;100159.11;93229;1213;81158;-61
2021/07/28 06:23:10;;;;;;;10.70;9.60;;;;;;;33.42;46.20;100151.44;93247;1208;66636;-62
2021/07/28 06:25:18;;;;;;;8.10;6.40;;;;;;;33.30;45.75;100149.42;93273;1208;68457;-62
2021/07/28 06:27:26;;;;;;;7.20;5.00;;;;;;;32.73;46.04;100151.30;93300;1208;86101;-62
2021/07/28 06:29:34;;;;;;;7.70;5.10;;;;;;;32.07;47.12;100153.90;93159;1208;75282;-60
2021/07/28 06:31:42;;;;;;;5.00;4.30;;;;;;;31.67;46.80;100155.41;93231;1213;81873;-61
2021/07/28 06:33:50;;;;;;;5.60;4.60;;;;;;;31.38;47.59;100159.74;93196;1209;65907;-61
2021/07/28 06:35:58;;;;;;;5.50;4.20;;;;;;;31.06;47.26;100159.50;93245;1208;68541;-62
2021/07/28 06:38:05;;;;;;;5.00;4.40;;;;;;;30.67;48.11;100147.36;93256;1209;86548;-62
2021/07/28 06:40:16;;;;;;;6.40;4.60;;;;;;;30.46;47.96;100151.14;93039;1214;75683;-62
2021/07/28 06:42:26;;;;;;;4.60;4.10;;;;;;;30.15;48.86;100154.02;93222;1209;81071;-62
2021/07/28 06:44:35;;;;;;;6.10;4.50;;;;;;;29.89;49.69;100150.36;93222;1209;65405;-62
2021/07/28 06:46:42;;;;;;;7.20;4.40;;;;;;;29.52;49.35;100160.83;93263;1208;69048;-61
2021/07/28 06:48:50;;;;;;;7.10;4.30;;;;;;;29.30;50.23;100160.05;93221;1209;85930;-63
2021/07/28 06:50:58;;;;;;;5.60;4.60;;;;;;;29.26;50.05;100159.86;93256;1208;73906;-63
2021/07/28 06:53:09;;;;;;;5.10;4.40;;;;;;;29.22;49.93;100161.65;93062;1206;80518;-62
2021/07/28 06:55:17;;;;;;;5.50;4.80;;;;;;;29.12;51.77;100156.30;93247;1209;66610;-62
2021/07/28 06:57:25;;;;;;;5.20;4.60;;;;;;;29.17;50.82;100159.77;93216;1208;69156;-62
2021/07/28 06:59:33;;;;;;;6.00;4.90;;;;;;;29.10;51.25;100164.15;93189;1209;86884;-65
2021/07/28 07:01:41;;;;;;;6.60;5.10;;;;;;;29.16;50.97;100166.49;93071;1209;73783;-61
2021/07/28 07:03:49;;;;;;;6.10;5.40;;;;;;;29.20;51.75;100158.31;93254;1203;82411;-63
2021/07/28 07:05:56;;;;;;;6.00;4.80;;;;;;;29.10;51.28;100161.37;93231;1209;66463;-64
2021/07/28 07:08:05;;;;;;;6.90;4.90;;;;;;;29.02;51.30;100151.84;93234;1208;68320;-63
2021/07/28 07:10:15;;;;;;;7.60;5.50;;;;;;;28.98;51.59;100147.23;93307;1202;86758;-66
2021/07/28 07:12:25;;;;;;;8.50;5.40;;;;;;;29.07;52.50;100145.30;93302;1208;74715;-67
2021/07/28 07:14:35;;;;;;;10.40;6.10;;;;;;;29.18;52.70;100141.13;93137;1213;81149;-66
2021/07/28 07:19:11;;;;;;;8.50;5.90;;;;;;;29.33;53.08;100148.28;94874;1160;68938;-63
2021/07/28 07:21:19;;;;;;;9.80;5.10;;;;;;;29.38;51.92;100145.35;93056;1213;87507;-60
2021/07/28 07:23:29;;;;;;;7.50;5.50;;;;;;;29.43;53.11;100142.42;93026;1211;74695;-59
2021/07/28 07:25:37;;;;;;;8.10;5.10;;;;;;;29.40;52.83;100138.33;93043;1206;81155;-60
2021/07/28 07:27:45;;;;;;;7.30;5.40;;;;;;;29.33;53.25;100146.33;92924;1216;66677;-61
2021/07/28 07:29:54;;;;;;;7.50;4.90;;;;;;;29.15;53.64;100141.75;93025;1209;68071;-59
2021/07/28 07:32:02;;;;;;;7.80;4.70;;;;;;;29.19;53.98;100138.03;93023;1214;87581;-62
2021/07/28 07:34:10;;;;;;;7.10;5.10;;;;;;;29.19;53.38;100138.03;93021;1217;74974;-60
2021/07/28 07:36:19;;;;;;;6.00;4.70;;;;;;;29.09;53.56;100129.14;93028;1211;79996;-62
2021/07/28 07:38:27;;;;;;;5.80;4.50;;;;;;;29.01;54.08;100132.66;92991;1213;65805;-59
2021/07/28 07:40:35;;;;;;;5.70;4.50;;;;;;;28.88;53.93;100128.00;93016;1213;68574;-60
2021/07/28 07:42:43;;;;;;;9.30;4.60;;;;;;;28.78;54.31;100125.48;93025;1214;85366;-61
2021/07/28 07:44:53;;;;;;;6.70;4.50;;;;;;;28.80;54.12;100123.20;93054;1217;75440;-60
2021/07/28 07:47:00;;;;;;;7.00;4.70;;;;;;;28.65;54.85;100119.66;93020;1208;81979;-59
2021/07/28 07:49:11;;;;;;;6.60;4.80;;;;;;;28.53;54.96;100121.34;93024;1216;67011;-66
2021/07/28 07:51:19;;;;;;;6.50;4.70;;;;;;;28.39;55.76;100117.78;93092;1212;68924;-67
2021/07/28 07:53:30;;;;;;;8.20;4.50;;;;;;;28.26;55.61;100113.92;93034;1208;87073;-59
2021/07/28 07:55:38;;;;;;;6.50;4.70;;;;;;;28.19;55.71;100109.91;93038;1208;75644;-68
2021/07/28 07:57:49;;;;;;;9.60;5.20;;;;;;;28.08;55.58;100112.92;93033;1216;81318;-66
2021/07/28 07:59:57;;;;;;;5.70;4.70;;;;;;;27.95;56.05;100110.14;92965;1213;67033;-67
2021/07/28 08:02:08;;;;;;;8.10;4.40;;;;;;;27.82;56.48;100110.99;93045;1212;68510;-67
2021/07/28 08:04:17;;;;;;;5.70;4.30;;;;;;;27.70;57.16;100107.91;93009;1208;87445;-66
2021/07/28 08:06:25;;;;;;;8.00;4.70;;;;;;;27.59;57.91;100112.02;92985;1213;75895;-67
2021/07/28 08:08:33;;;;;;;6.60;4.40;;;;;;;27.52;58.90;100109.67;92999;1213;81155;-63
2021/07/28 08:10:41;;;;;;;7.40;4.70;;;;;;;27.45;59.01;100107.30;93044;1210;66244;-62
2021/07/28 08:12:50;;;;;;;6.30;4.40;;;;;;;27.42;59.13;100102.36;92996;1211;68048;-66
2021/07/28 08:14:57;;;;;;;6.40;4.60;;;;;;;27.45;58.63;100106.47;93016;1213;87340;-68
2021/07/28 08:17:08;;;;;;;5.90;4.50;;;;;;;27.48;58.34;100111.41;93016;1210;74404;-66
2021/07/28 08:19:16;;;;;;;6.40;4.10;;;;;;;27.51;58.17;100113.57;93004;1207;80218;-68
2021/07/28 08:21:23;;;;;;;4.60;4.10;;;;;;;27.59;58.81;100114.80;93011;1214;65699;-66
2021/07/28 08:23:31;;;;;;;6.60;4.40;;;;;;;27.60;59.24;100113.67;93046;1209;68340;-67
2021/07/28 08:25:39;;;;;;;7.80;4.60;;;;;;;27.73;59.39;100110.06;93006;1208;86168;-67
2021/07/28 08:27:47;;;;;;;4.90;4.40;;;;;;;27.94;59.84;100108.48;93021;1208;74630;-61
2021/07/28 08:29:58;;;;;;;5.10;4.50;;;;;;;28.12;59.94;100110.36;93026;1208;80395;-63
2021/07/28 08:32:07;;;;;;;7.70;4.40;;;;;;;28.27;59.00;100112.77;93017;1208;65775;-62
2021/07/28 08:34:15;;;;;;;7.20;4.30;;;;;;;28.49;59.08;100121.14;93045;1212;68935;-68
2021/07/28 08:36:27;;;;;;;6.80;4.30;;;;;;;28.53;58.57;100118.56;93043;1208;86215;-69
2021/07/28 08:38:38;;;;;;;5.50;4.60;;;;;;;28.62;58.38;100120.29;93037;1213;75257;-63
2021/07/28 08:40:55;;;;;;;7.70;4.80;;;;;;;28.71;57.52;100113.97;93036;1216;81916;-63
2021/07/28 08:43:05;;;;;;;5.60;4.40;;;;;;;28.98;57.87;100111.87;93044;1211;66754;-66
2021/07/28 08:45:15;;;;;;;6.30;4.50;;;;;;;29.53;58.05;100106.77;93060;1212;69365;-66
2021/07/28 08:47:24;;;;;;;6.10;4.20;;;;;;;30.11;57.10;100108.42;93047;1208;86299;-67
2021/07/28 08:49:32;;;;;;;6.40;4.90;;;;;;;30.47;54.20;100097.82;92947;1211;75624;-67
2021/07/28 08:51:43;;;;;;;8.30;5.50;;;;;;;30.93;54.46;100106.33;92991;1210;81192;-67
2021/07/28 08:53:51;;;;;;;7.80;4.70;;;;;;;31.31;53.48;100105.58;93019;1211;67027;-62
2021/07/28 08:56:01;;;;;;;5.40;4.70;;;;;;;31.87;53.29;100098.74;93014;1204;68939;-63
2021/07/28 08:58:16;;;;;;;7.20;4.80;;;;;;;32.78;52.23;100103.51;92996;1212;86358;-67
2021/07/28 09:00:24;;;;;;;8.90;4.60;;;;;;;33.42;50.21;100093.44;93056;1212;75266;-64
2021/07/28 09:02:32;;;;;;;6.80;5.00;;;;;;;34.06;49.25;100084.34;93017;1213;81664;-65
2021/07/28 09:04:41;;;;;;;7.90;4.70;;;;;;;34.65;47.89;100092.96;93015;1206;65551;-63
2021/07/28 09:06:49;;;;;;;6.90;4.90;;;;;;;35.48;46.57;100090.86;93046;1210;68171;-62
2021/07/28 09:09:02;;;;;;;5.80;4.60;;;;;;;35.53;44.67;100092.58;93013;1211;86720;-64
2021/07/28 09:11:10;;;;;;;;;;;;;;;35.38;43.83;100094.20;93056;1211;75611;-64
2021/07/28 09:13:25;;;;;;;6.00;5.00;;;;;;;35.09;42.31;100091.83;93037;1216;81418;-64
2021/07/28 09:15:43;;;;;;;4.80;4.20;;;;;;;35.43;41.98;100084.70;93039;1211;66255;-63
2021/07/28 09:17:51;;;;;;;5.30;4.00;;;;;;;35.88;42.86;100093.46;93061;1217;68208;-64
2021/07/28 09:20:01;;;;;;;5.40;3.70;;;;;;;36.36;41.53;100086.55;93020;1211;86162;-65
2021/07/28 09:22:10;;;;;;;5.90;4.40;;;;;;;36.52;40.55;100090.14;93069;1209;76396;-64
2021/07/28 09:24:18;;;;;;;9.20;4.50;;;;;;;36.59;41.06;100081.83;93042;1211;80032;-65
2021/07/28 09:26:42;;;;;;;4.90;4.40;;;;;;;36.56;40.15;100082.57;93028;1211;67030;-64
2021/07/28 09:29:06;;;;;;;5.40;4.40;;;;;;;36.48;39.89;100077.95;93013;1209;69249;-64
2021/07/28 09:31:32;;;;;;;5.70;4.40;;;;;;;36.32;40.23;100068.77;93029;1213;85261;-63
2021/07/28 09:34:29;;;;;;;8.30;4.50;;;;;;;36.07;39.11;100070.22;92992;1216;76016;-66
2021/07/28 09:36:38;;;;;;;5.90;4.50;;;;;;;35.45;40.61;100071.92;93055;1217;81373;-66
2021/07/28 09:38:47;;;;;;;5.00;4.50;;;;;;;35.23;40.66;100072.55;93011;1209;66935;-67
2021/07/28 09:41:10;;;;;;;5.20;4.20;;;;;;;35.05;39.13;100067.62;93009;1211;69028;-63
2021/07/28 09:43:18;;;;;;;6.90;5.10;;;;;;;34.78;39.90;100064.48;93010;1217;86318;-67
2021/07/28 09:45:32;;;;;;;6.60;4.70;;;;;;;34.69;40.53;100066.66;93013;1212;75035;-67
2021/07/28 09:47:45;;;;;;;6.20;4.80;;;;;;;34.76;40.38;100063.20;93023;1212;82215;-65
2021/07/28 09:50:17;;;;;;;6.20;4.60;;;;;;;34.70;41.06;100067.44;93018;1213;65524;-60
2021/07/28 09:52:33;;;;;;;6.40;4.90;;;;;;;34.50;41.30;100072.08;93048;1212;68156;-59
2021/07/28 09:54:41;;;;;;;6.80;4.90;;;;;;;34.56;41.02;100061.42;93046;1209;85651;-65
2021/07/28 09:56:54;;;;;;;6.90;4.80;;;;;;;34.47;40.25;100060.75;93013;1211;74263;-66
2021/07/28 09:59:04;;;;;;;5.90;5.00;;;;;;;34.19;40.21;100058.74;92991;1208;82539;-60
2021/07/28 10:01:12;;;;;;;5.30;4.80;;;;;;;34.16;40.68;100053.02;93026;1213;66399;-59
2021/07/28 10:03:21;;;;;;;7.30;5.00;;;;;;;34.21;41.83;100059.20;93080;1212;69729;-66
2021/07/28 10:05:30;;;;;;;5.50;4.60;;;;;;;34.26;41.18;100058.12;92972;1211;86883;-70